Terminal Aerodrome Forecast
Issued by NWS

Home | Current Version | Previous Version | Text Only | Print | Product List | Glossary On
Versions: 1 2 3 4 5 6 7 8 9 10 11 12 13 14 15 16 17 18 19 20 21
038
FTUS41 KGYX 302320
TAFLEB
TAF
KLEB 302320Z 3100/3124 00000KT P6SM SCT150 BKN250
     FM310800 00000KT 5SM BR OVC050
     FM311200 VRB03KT P6SM OVC030
     FM311400 VRB04KT 2SM -SNRA BR OVC015
     FM312200 14006KT 1/4SM SN FG OVC007=

USA.gov is the U.S. government's official web portal to all federal, state and local government web resources and services.